createdAt,value
2023-05-12T00:04:01.751Z,3.20
2023-05-12T00:14:03.979Z,3.35
2023-05-12T00:24:06.476Z,3.50
2023-05-12T00:34:18.586Z,4.18
2023-05-12T00:44:20.535Z,3.25
2023-05-12T00:54:23.073Z,3.63
2023-05-12T01:04:25.122Z,3.80
2023-05-12T01:14:27.360Z,3.90
2023-05-12T01:24:32.698Z,3.95
2023-05-12T01:34:36.279Z,3.78
2023-05-12T01:44:50.484Z,3.75
2023-05-12T01:54:52.426Z,3.63
2023-05-12T02:04:54.481Z,3.78
2023-05-12T02:15:11.054Z,3.42
2023-05-12T02:25:13.688Z,4.03
2023-05-12T02:35:15.670Z,3.92
2023-05-12T02:45:24.500Z,3.78
2023-05-12T02:55:26.572Z,4.35
2023-05-12T03:05:28.612Z,3.78
2023-05-12T03:15:35.162Z,3.63
2023-05-12T03:25:37.133Z,2.67
2023-05-12T03:35:38.999Z,3.70
2023-05-12T03:45:41.025Z,3.65
2023-05-12T03:55:55.999Z,3.65
2023-05-12T04:06:03.249Z,4.35
2023-05-12T04:16:05.708Z,4.10
2023-05-12T04:26:34.688Z,3.60
2023-05-12T04:36:45.604Z,3.45
2023-05-12T04:46:56.648Z,3.65
2023-05-12T04:56:58.794Z,3.15
2023-05-12T05:07:00.866Z,3.50
2023-05-12T05:17:04.104Z,3.38
2023-05-12T05:27:06.401Z,3.30
2023-05-12T05:37:08.821Z,3.03
2023-05-12T05:47:11.902Z,2.83
2023-05-12T05:57:18.106Z,3.42
2023-05-12T06:07:21.988Z,3.17
2023-05-12T06:17:24.211Z,3.30
2023-05-12T06:27:26.199Z,2.72
2023-05-12T06:37:30.203Z,3.72
2023-05-12T06:47:40.611Z,2.67
2023-05-12T06:57:42.752Z,3.08
2023-05-12T07:07:46.886Z,2.95
2023-05-12T07:17:49.947Z,2.47
2023-05-12T07:27:52.084Z,2.38
2023-05-12T07:37:56.019Z,2.72
2023-05-12T07:47:58.021Z,2.50
2023-05-12T07:58:05.137Z,2.83
2023-05-12T08:08:07.406Z,2.40
2023-05-12T08:18:11.558Z,2.60
2023-05-12T08:28:32.832Z,2.95
2023-05-12T08:38:59.462Z,2.90
2023-05-12T08:49:17.371Z,2.90
2023-05-12T08:59:25.775Z,3.22
2023-05-12T09:09:29.906Z,3.13
2023-05-12T09:19:32.811Z,2.40
2023-05-12T09:29:45.160Z,2.88
2023-05-12T09:40:00.511Z,2.47
2023-05-12T09:50:04.160Z,3.08
2023-05-12T10:00:16.878Z,2.50
2023-05-12T10:10:33.333Z,2.72
2023-05-12T10:20:42.630Z,2.05
2023-05-12T10:31:08.000Z,3.08
2023-05-12T10:41:10.062Z,3.25
2023-05-12T10:51:12.029Z,2.65
2023-05-12T11:01:25.457Z,2.15
2023-05-12T11:11:29.402Z,2.65
2023-05-12T11:21:35.493Z,2.13
2023-05-12T11:31:38.643Z,2.83
2023-05-12T11:41:42.657Z,2.47
2023-05-12T11:51:44.689Z,2.28
2023-05-12T12:01:51.040Z,2.15
2023-05-12T12:11:53.122Z,2.65
2023-05-12T12:22:24.273Z,2.08
2023-05-12T12:32:26.385Z,2.22
2023-05-12T12:42:28.436Z,1.60
2023-05-12T12:52:30.714Z,1.13
2023-05-12T13:02:33.811Z,1.55
2023-05-12T13:12:36.296Z,1.45
2023-05-12T13:22:42.058Z,1.23
2023-05-12T13:32:47.087Z,1.23
2023-05-12T13:42:51.123Z,1.40
2023-05-12T13:52:53.211Z,1.25
2023-05-12T14:02:55.273Z,2.20
2023-05-12T14:12:58.276Z,1.30
2023-05-12T14:23:03.926Z,1.90
2023-05-12T14:33:15.958Z,2.03
2023-05-12T14:43:18.121Z,2.40
2023-05-12T14:53:20.699Z,1.63
2023-05-12T15:03:23.017Z,1.70
2023-05-12T15:13:49.973Z,2.33
2023-05-12T15:23:53.984Z,1.20
2023-05-12T15:33:57.052Z,1.98
2023-05-12T15:44:01.133Z,1.88
2023-05-12T15:54:15.210Z,2.03
2023-05-12T16:04:17.212Z,1.98
2023-05-12T16:14:19.603Z,2.28
2023-05-12T16:24:22.141Z,2.40
2023-05-12T16:34:25.920Z,1.88
2023-05-12T16:44:29.982Z,2.45
2023-05-12T16:55:03.021Z,1.38
2023-05-12T17:05:05.716Z,2.83
2023-05-12T17:15:09.736Z,1.30
2023-05-12T17:25:12.142Z,1.67
2023-05-12T17:35:20.395Z,1.58
2023-05-12T17:45:37.959Z,1.70
2023-05-12T17:55:39.870Z,1.17
2023-05-12T18:05:58.051Z,1.33
2023-05-12T18:16:00.157Z,1.85
2023-05-12T18:26:06.088Z,1.83
2023-05-12T18:36:14.016Z,2.78
2023-05-12T18:46:17.035Z,4.35
2023-05-12T18:56:24.943Z,5.00
2023-05-12T19:06:30.459Z,4.68
2023-05-12T19:16:35.177Z,4.03
2023-05-12T19:26:37.502Z,3.45
2023-05-12T19:36:39.653Z,6.68
2023-05-12T19:46:41.652Z,12.20
2023-05-12T19:56:43.598Z,11.27
2023-05-12T20:06:45.743Z,9.63
2023-05-12T20:16:47.867Z,8.57
2023-05-12T20:26:49.901Z,8.25
2023-05-12T20:37:02.208Z,9.95
2023-05-12T20:48:19.026Z,13.52
2023-05-12T20:58:10.081Z,9.55
2023-05-12T21:08:07.118Z,6.88
2023-05-12T21:18:11.435Z,6.80
2023-05-12T21:28:22.515Z,6.43
2023-05-12T21:38:27.355Z,6.15
2023-05-12T21:48:29.398Z,6.00
2023-05-12T21:58:33.310Z,7.55
2023-05-12T22:08:41.055Z,6.47
2023-05-12T22:18:43.884Z,7.65
2023-05-12T22:28:46.186Z,6.85
2023-05-12T22:38:48.047Z,7.18
2023-05-12T22:48:52.840Z,7.28
2023-05-12T22:58:57.710Z,7.15
2023-05-12T23:08:59.594Z,7.00
2023-05-12T23:19:01.634Z,5.90
2023-05-12T23:29:04.383Z,6.22
2023-05-12T23:39:09.977Z,6.78
2023-05-12T23:49:12.860Z,6.13
2023-05-12T23:59:16.828Z,6.45
